Time;durP1;ratioP1;P1;durP2;ratioP2;P2;SDS_P1;SDS_P2;PMS_P1;PMS_P2;Temp;Humidity;BMP_temperature;BMP_pressure;BME280_temperature;BME280_humidity;BME280_pressure;Samples;Min_cycle;Max_cycle;Signal;HPM_P1;HPM_P2
2020/12/20 00:04:12;;;;;;;11.13;5.60;;;;;;;11.84;66.12;100577.78;8425987;34;20427;-71
2020/12/20 00:09:17;;;;;;;8.07;5.10;;;;;;;11.74;66.43;100580.25;8423936;33;20684;-71
2020/12/20 00:14:30;;;;;;;7.72;5.35;;;;;;;11.77;66.41;100585.38;8426115;34;20610;-71
2020/12/20 00:19:33;;;;;;;7.28;5.57;;;;;;;11.68;66.90;100572.63;8423031;33;20429;-71
2020/12/20 00:24:35;;;;;;;7.53;5.80;;;;;;;11.79;66.82;100576.28;8419911;34;20471;-72
2020/12/20 00:29:39;;;;;;;7.47;5.20;;;;;;;11.77;66.81;100575.53;8421424;33;20157;-71
2020/12/20 00:34:42;;;;;;;7.75;5.30;;;;;;;11.83;66.78;100570.72;8421828;34;20185;-71
2020/12/20 00:39:45;;;;;;;7.57;4.93;;;;;;;11.85;66.67;100575.00;8423285;33;20997;-71
2020/12/20 00:44:48;;;;;;;8.05;5.10;;;;;;;11.89;66.63;100576.53;8423129;34;20924;-71
2020/12/20 00:49:50;;;;;;;6.95;4.50;;;;;;;11.93;66.99;100577.16;8422772;33;20240;-71
2020/12/20 00:54:53;;;;;;;7.63;5.32;;;;;;;11.91;66.89;100561.22;8422303;34;20455;-71
2020/12/20 00:59:56;;;;;;;6.35;4.53;;;;;;;11.89;67.23;100571.16;8421200;34;20460;-71
2020/12/20 01:04:58;;;;;;;8.95;4.93;;;;;;;11.86;67.13;100566.03;8423976;33;20148;-72
2020/12/20 01:10:01;;;;;;;8.60;5.25;;;;;;;11.82;67.63;100569.00;8422357;34;21300;-71
2020/12/20 01:15:07;;;;;;;6.70;4.45;;;;;;;11.82;67.57;100574.34;8392243;33;20407;-71
2020/12/20 01:20:12;;;;;;;7.13;4.90;;;;;;;11.81;67.71;100578.84;8380918;34;20288;-71
2020/12/20 01:25:15;;;;;;;8.48;4.75;;;;;;;11.80;67.32;100580.66;8404816;33;20517;-71
2020/12/20 01:30:27;;;;;;;9.27;5.32;;;;;;;11.69;67.95;100572.53;8409795;34;20500;-71
2020/12/20 01:35:29;;;;;;;9.93;5.88;;;;;;;11.29;68.00;100566.34;8381381;33;20436;-72
2020/12/20 01:40:31;;;;;;;10.93;6.50;;;;;;;10.97;68.40;100565.78;8391173;34;20244;-72
2020/12/20 01:45:35;;;;;;;11.52;6.68;;;;;;;10.86;69.06;100586.06;8416630;33;20421;-71
2020/12/20 01:50:38;;;;;;;9.43;6.60;;;;;;;10.87;69.15;100579.75;8377352;34;20180;-72
2020/12/20 01:55:43;;;;;;;10.25;6.35;;;;;;;10.83;69.36;100578.25;8400029;33;20539;-72
2020/12/20 02:00:46;;;;;;;13.77;6.80;;;;;;;10.76;69.67;100582.28;8404755;34;20476;-72
2020/12/20 02:06:13;;;;;;;9.23;6.28;;;;;;;10.63;69.97;100568.84;8417436;33;20436;-72
2020/12/20 02:11:20;;;;;;;9.20;6.28;;;;;;;10.47;70.32;100578.78;8340354;34;20484;-72
2020/12/20 02:16:28;;;;;;;12.30;7.93;;;;;;;10.32;70.39;100582.44;8381376;33;20469;-71
2020/12/20 02:21:32;;;;;;;12.07;7.38;;;;;;;10.25;70.05;100577.41;8425615;34;20500;-72
2020/12/20 02:26:40;;;;;;;11.77;6.82;;;;;;;10.19;70.30;100571.63;8410157;33;20412;-72
2020/12/20 02:31:44;;;;;;;10.25;7.13;;;;;;;10.06;69.82;100574.19;8433723;34;21336;-71
2020/12/20 02:36:50;;;;;;;13.02;8.30;;;;;;;10.01;70.01;100574.47;8409510;33;20447;-71
2020/12/20 02:42:01;;;;;;;14.15;7.60;;;;;;;10.00;69.94;100571.91;8434652;34;20420;-71
2020/12/20 02:47:11;;;;;;;13.52;7.93;;;;;;;9.97;70.10;100577.44;8403109;33;20455;-72
2020/12/20 02:52:16;;;;;;;13.13;7.30;;;;;;;9.84;70.44;100569.28;8401715;34;20333;-72
2020/12/20 02:57:19;;;;;;;16.05;8.45;;;;;;;9.65;70.58;100564.22;8396331;33;20874;-72
2020/12/20 03:02:27;;;;;;;13.93;7.32;;;;;;;9.52;71.24;100568.59;8420340;34;20428;-71
2020/12/20 03:07:31;;;;;;;11.85;7.82;;;;;;;9.39;71.32;100572.94;8420899;33;20152;-71
2020/12/20 03:12:36;;;;;;;11.93;7.65;;;;;;;9.25;71.51;100571.94;8400883;34;20532;-72
2020/12/20 03:17:38;;;;;;;14.52;8.32;;;;;;;9.16;71.23;100567.13;8425370;34;20434;-72
2020/12/20 03:22:42;;;;;;;12.82;8.02;;;;;;;9.07;71.72;100565.84;8407207;34;20441;-71
2020/12/20 03:28:03;;;;;;;13.00;8.48;;;;;;;9.04;71.67;100570.50;8429350;33;20237;-71
2020/12/20 03:33:32;;;;;;;12.73;7.90;;;;;;;8.92;71.98;100566.75;8422557;34;20189;-71
2020/12/20 03:38:49;;;;;;;13.82;8.35;;;;;;;8.89;72.08;100583.75;8379834;34;20513;-71
2020/12/20 03:43:52;;;;;;;13.88;7.60;;;;;;;8.92;71.98;100589.88;8401264;34;20472;-71
2020/12/20 03:48:54;;;;;;;17.20;8.95;;;;;;;8.85;71.95;100584.84;8399826;34;20142;-71
2020/12/20 03:53:59;;;;;;;13.50;8.10;;;;;;;8.74;72.07;100575.75;8399426;34;21110;-71
2020/12/20 03:59:05;;;;;;;14.18;8.07;;;;;;;8.73;72.16;100579.38;8422252;33;20240;-71
2020/12/20 04:04:08;;;;;;;17.40;9.17;;;;;;;8.85;71.71;100568.88;8399404;34;20456;-71
2020/12/20 04:09:14;;;;;;;13.33;8.13;;;;;;;8.82;71.68;100578.84;8422249;33;22160;-71
2020/12/20 04:14:26;;;;;;;14.10;8.40;;;;;;;8.76;71.98;100576.53;8424005;34;20501;-71
2020/12/20 04:19:28;;;;;;;15.38;8.38;;;;;;;8.77;71.88;100580.91;8388603;34;594316;-71
2020/12/20 04:24:39;;;;;;;13.98;8.57;;;;;;;8.71;72.17;100578.59;8421370;34;20273;-71
2020/12/20 04:29:43;;;;;;;14.38;8.57;;;;;;;8.70;72.44;100569.75;8398203;34;20460;-71
2020/12/20 04:34:47;;;;;;;16.05;8.60;;;;;;;8.76;72.25;100579.22;8399422;34;20433;-71
2020/12/20 04:39:50;;;;;;;14.70;7.90;;;;;;;8.80;72.31;100580.75;8399900;34;20264;-70
2020/12/20 04:44:58;;;;;;;17.30;8.30;;;;;;;8.83;72.23;100562.78;8399429;33;20203;-71
2020/12/20 04:50:06;;;;;;;16.00;8.77;;;;;;;8.82;72.11;100565.53;8398754;34;20533;-70
2020/12/20 04:55:09;;;;;;;13.75;8.50;;;;;;;8.83;73.31;100583.22;8398285;33;20193;-70
2020/12/20 05:00:32;;;;;;;16.70;9.23;;;;;;;8.67;75.32;100577.94;8417583;34;20464;-72
2020/12/20 05:05:35;;;;;;;15.70;8.70;;;;;;;8.53;76.52;100585.78;8420811;33;20970;-70
2020/12/20 05:10:39;;;;;;;15.18;9.70;;;;;;;8.53;76.84;100594.66;8419434;34;20411;-71
2020/12/20 05:15:43;;;;;;;16.25;10.65;;;;;;;8.59;77.38;100606.78;8420824;34;20499;-73
2020/12/20 05:21:25;;;;;;;16.55;9.73;;;;;;;8.54;77.57;100592.88;8399562;34;20272;-71
2020/12/20 05:26:32;;;;;;;14.65;9.70;;;;;;;8.48;78.02;100586.06;8420109;33;20626;-72
2020/12/20 05:31:37;;;;;;;20.65;9.52;;;;;;;8.51;77.87;100574.41;8398253;34;20177;-70
2020/12/20 05:37:11;;;;;;;16.85;9.48;;;;;;;8.46;77.57;100571.97;8402321;33;20642;-70
2020/12/20 05:42:32;;;;;;;19.02;10.13;;;;;;;8.53;77.55;100584.00;8398797;34;20468;-71
2020/12/20 05:47:37;;;;;;;14.88;8.98;;;;;;;8.57;77.66;100596.19;8403038;33;20158;-71
2020/12/20 05:52:40;;;;;;;18.27;9.90;;;;;;;8.61;77.98;100595.09;8404028;34;20639;-71
2020/12/20 05:57:43;;;;;;;17.75;10.15;;;;;;;8.61;77.71;100591.56;8426704;33;20419;-71
2020/12/20 06:02:46;;;;;;;18.77;10.75;;;;;;;8.56;77.58;100598.97;8427891;34;20468;-71
2020/12/20 06:07:54;;;;;;;18.35;10.10;;;;;;;8.50;77.67;100604.59;8428470;33;20453;-71
2020/12/20 06:12:58;;;;;;;18.05;9.80;;;;;;;8.61;77.91;100605.75;8430139;34;20476;-71
2020/12/20 06:18:07;;;;;;;18.75;9.73;;;;;;;8.62;77.77;100598.63;8406864;34;20436;-71
2020/12/20 06:23:10;;;;;;;16.35;9.65;;;;;;;8.52;77.32;100595.59;8427644;34;21726;-71
2020/12/20 06:28:18;;;;;;;20.42;10.80;;;;;;;8.44;78.15;100592.50;8428284;33;20208;-71
2020/12/20 06:33:28;;;;;;;17.27;10.43;;;;;;;8.54;77.98;100596.38;8426678;34;20157;-71
2020/12/20 06:38:30;;;;;;;19.08;10.68;;;;;;;8.57;77.77;100601.53;8427457;33;20142;-71
2020/12/20 06:43:36;;;;;;;15.15;9.77;;;;;;;8.59;77.64;100599.66;8429232;34;21377;-71
2020/12/20 06:48:39;;;;;;;17.67;10.18;;;;;;;8.64;77.72;100596.75;8429906;33;20491;-71
2020/12/20 06:53:51;;;;;;;16.42;9.80;;;;;;;8.55;77.43;100587.44;8432770;34;20545;-71
2020/12/20 06:58:54;;;;;;;20.70;11.32;;;;;;;8.55;77.28;100597.22;8428618;33;20551;-71
2020/12/20 07:03:57;;;;;;;17.02;10.68;;;;;;;8.54;77.25;100595.53;8428697;34;21183;-71
2020/12/20 07:09:05;;;;;;;14.35;9.70;;;;;;;8.55;77.46;100598.09;8429351;33;20437;-71
2020/12/20 07:14:20;;;;;;;16.60;10.00;;;;;;;8.54;77.36;100607.03;8429778;34;20661;-71
2020/12/20 07:19:24;;;;;;;22.00;10.75;;;;;;;8.51;77.27;100614.34;8435043;34;20423;-71
2020/12/20 07:24:29;;;;;;;19.13;10.65;;;;;;;8.50;77.38;100607.28;8444383;34;20438;-70
2020/12/20 07:29:35;;;;;;;21.60;11.88;;;;;;;8.49;77.43;100614.41;8429474;34;20130;-70
2020/12/20 07:34:37;;;;;;;17.48;10.43;;;;;;;8.40;77.30;100610.44;8427044;34;20189;-70
2020/12/20 07:39:40;;;;;;;15.48;9.82;;;;;;;8.43;77.17;100612.94;8427711;33;20330;-70
2020/12/20 07:44:43;;;;;;;21.15;11.32;;;;;;;8.44;76.97;100611.97;8426082;34;20425;-70
2020/12/20 07:49:56;;;;;;;20.00;10.52;;;;;;;8.39;77.07;100619.38;8427403;33;20471;-70
2020/12/20 07:55:03;;;;;;;21.80;11.10;;;;;;;8.48;76.95;100627.81;8478869;33;20472;-70
2020/12/20 08:00:07;;;;;;;23.23;10.98;;;;;;;8.52;76.57;100638.19;8485099;33;20472;-70
2020/12/20 08:05:16;;;;;;;21.52;11.90;;;;;;;8.59;76.41;100644.94;8499923;33;20662;-70
2020/12/20 08:10:24;;;;;;;12.52;6.97;;;;;;;8.73;76.60;100638.00;8491007;33;21175;-70
2020/12/20 08:15:27;;;;;;;25.83;12.50;;;;;;;8.85;75.90;100646.13;8486746;33;20176;-71
2020/12/20 08:20:30;;;;;;;16.08;8.00;;;;;;;8.96;74.90;100655.34;8495475;33;20992;-71
2020/12/20 08:25:33;;;;;;;22.23;12.63;;;;;;;8.93;74.95;100650.19;8501902;33;20604;-71
2020/12/20 08:30:38;;;;;;;19.95;10.52;;;;;;;9.03;74.64;100651.41;8490360;33;20194;-71
2020/12/20 08:35:40;;;;;;;17.38;10.52;;;;;;;9.14;74.55;100646.34;8494045;33;20476;-71
2020/12/20 08:40:42;;;;;;;16.55;9.88;;;;;;;9.26;74.17;100642.94;8488019;33;20691;-71
2020/12/20 08:45:46;;;;;;;21.65;10.45;;;;;;;9.34;73.81;100639.84;8484395;33;21096;-71
2020/12/20 08:50:55;;;;;;;15.73;9.75;;;;;;;9.23;73.53;100655.59;8485653;33;20920;-71
2020/12/20 08:56:08;;;;;;;16.90;9.70;;;;;;;9.29;73.66;100657.91;8464962;33;20980;-71
2020/12/20 09:01:16;;;;;;;17.83;10.50;;;;;;;9.27;73.86;100654.47;8481492;33;20928;-70
2020/12/20 09:06:18;;;;;;;22.98;12.25;;;;;;;9.25;73.79;100661.72;8506212;33;20172;-71
2020/12/20 09:11:25;;;;;;;17.20;10.63;;;;;;;9.41;73.36;100661.72;8504824;33;21069;-70
2020/12/20 09:16:42;;;;;;;18.63;10.68;;;;;;;9.51;72.67;100669.06;8504705;33;20184;-70
2020/12/20 09:21:49;;;;;;;19.35;11.40;;;;;;;9.61;72.56;100684.56;8504431;33;20453;-71
2020/12/20 09:26:59;;;;;;;20.50;11.52;;;;;;;9.65;72.03;100683.41;8505136;33;20207;-71
2020/12/20 09:32:10;;;;;;;23.55;12.70;;;;;;;9.60;71.87;100690.81;8503555;33;20419;-71
2020/12/20 09:37:13;;;;;;;18.50;10.45;;;;;;;9.34;72.69;100688.69;8504286;33;20517;-71
2020/12/20 09:42:15;;;;;;;19.80;11.93;;;;;;;9.45;72.82;100689.91;8505582;33;20445;-71
2020/12/20 09:47:19;;;;;;;18.25;10.90;;;;;;;9.57;72.90;100699.84;8510493;33;20314;-71
2020/12/20 09:52:21;;;;;;;20.02;11.00;;;;;;;9.65;72.70;100699.41;8510485;33;20416;-71
2020/12/20 09:57:36;;;;;;;19.60;12.02;;;;;;;10.05;71.45;100689.06;8509049;33;20140;-71
2020/12/20 10:02:39;;;;;;;21.45;11.55;;;;;;;9.79;71.89;100691.50;8509424;33;20211;-71
2020/12/20 10:07:42;;;;;;;20.17;12.23;;;;;;;9.77;72.42;100702.25;8481275;33;20145;-71
2020/12/20 10:12:45;;;;;;;16.63;9.98;;;;;;;9.79;72.66;100708.34;8506320;33;20430;-71
2020/12/20 10:17:48;;;;;;;19.73;11.57;;;;;;;9.75;72.82;100703.28;8509914;33;20421;-71
2020/12/20 10:22:50;;;;;;;22.55;12.20;;;;;;;10.59;71.44;100694.72;8485350;33;20153;-71
2020/12/20 10:27:54;;;;;;;19.58;11.60;;;;;;;11.17;69.09;100692.84;8511893;33;20196;-71
2020/12/20 10:32:57;;;;;;;16.40;10.88;;;;;;;10.99;68.70;100695.72;8507890;33;20455;-71
2020/12/20 10:37:59;;;;;;;20.17;11.40;;;;;;;10.67;70.08;100687.09;8505573;33;20407;-71
2020/12/20 10:43:02;;;;;;;19.55;11.52;;;;;;;10.63;70.75;100690.88;8483135;33;20792;-71
2020/12/20 10:48:05;;;;;;;24.17;12.13;;;;;;;10.78;70.05;100697.09;8510748;33;20457;-71
2020/12/20 10:53:07;;;;;;;20.45;10.75;;;;;;;10.93;69.89;100692.59;8500760;33;20194;-70
2020/12/20 10:58:12;;;;;;;23.02;11.77;;;;;;;11.10;69.43;100687.03;8505510;33;20266;-71
2020/12/20 11:03:16;;;;;;;18.83;10.90;;;;;;;11.14;69.52;100685.88;8493484;33;21316;-70
2020/12/20 11:08:18;;;;;;;20.02;11.05;;;;;;;10.99;69.75;100695.72;8503258;33;20184;-71
2020/12/20 11:13:21;;;;;;;19.38;10.98;;;;;;;10.75;70.96;100684.78;8504887;33;20474;-70
2020/12/20 11:18:24;;;;;;;17.75;10.52;;;;;;;10.65;70.67;100681.81;8504168;33;20437;-70
2020/12/20 11:23:26;;;;;;;27.60;15.48;;;;;;;10.65;71.00;100684.50;8502483;33;20188;-70
2020/12/20 11:28:34;;;;;;;20.00;11.70;;;;;;;11.09;70.27;100678.16;8488682;33;20462;-70
2020/12/20 11:33:38;;;;;;;18.27;11.70;;;;;;;11.29;69.44;100667.97;8488987;33;20200;-70
2020/12/20 11:38:40;;;;;;;17.08;11.00;;;;;;;11.17;69.64;100674.13;8488538;33;20157;-70
2020/12/20 11:43:42;;;;;;;16.73;10.52;;;;;;;10.97;70.50;100656.69;8487998;33;20230;-70
2020/12/20 11:48:46;;;;;;;16.33;9.63;;;;;;;11.00;70.75;100659.19;8488227;33;22552;-70
2020/12/20 11:53:49;;;;;;;19.40;10.60;;;;;;;11.24;70.73;100640.66;8462399;33;20423;-70
2020/12/20 11:58:52;;;;;;;20.08;11.38;;;;;;;11.43;70.12;100646.50;8486243;33;20188;-70
2020/12/20 12:03:55;;;;;;;19.08;10.85;;;;;;;11.45;69.83;100638.41;8474359;33;21932;-70
2020/12/20 12:08:57;;;;;;;18.17;10.15;;;;;;;11.30;70.29;100637.59;8501303;33;20151;-70
2020/12/20 12:14:00;;;;;;;18.77;10.40;;;;;;;11.30;70.88;100645.63;8501281;33;20423;-70
2020/12/20 12:19:03;;;;;;;17.13;9.60;;;;;;;11.27;71.66;100654.72;8476440;33;21420;-70
2020/12/20 12:24:05;;;;;;;16.42;10.02;;;;;;;11.46;71.17;100659.69;8501605;33;20148;-69
2020/12/20 12:29:09;;;;;;;16.00;9.85;;;;;;;11.57;71.14;100656.31;8504572;33;20432;-70
2020/12/20 12:34:12;;;;;;;21.35;11.77;;;;;;;11.43;70.72;100651.00;8502324;33;20422;-71
2020/12/20 12:39:14;;;;;;;20.13;11.73;;;;;;;11.28;70.63;100650.22;8497164;33;21089;-71
2020/12/20 12:44:16;;;;;;;17.50;10.45;;;;;;;11.17;71.09;100647.38;8486374;33;20246;-69
2020/12/20 12:49:20;;;;;;;17.40;10.27;;;;;;;11.16;71.52;100653.69;8483042;33;20404;-70
2020/12/20 12:54:22;;;;;;;14.82;10.15;;;;;;;11.09;71.59;100650.56;8482272;33;20465;-70
2020/12/20 12:59:31;;;;;;;20.13;11.13;;;;;;;10.99;71.91;100660.97;8480311;33;20583;-69
2020/12/20 13:04:35;;;;;;;22.65;11.95;;;;;;;10.88;72.01;100652.78;8480354;33;20218;-70
2020/12/20 13:09:37;;;;;;;19.80;12.20;;;;;;;10.86;72.25;100655.56;8484370;33;20171;-70
2020/12/20 13:14:40;;;;;;;17.65;10.77;;;;;;;10.94;72.01;100652.38;8483651;33;20196;-70
2020/12/20 13:19:43;;;;;;;19.58;10.57;;;;;;;10.90;71.97;100653.56;8478590;33;21868;-70
2020/12/20 13:24:46;;;;;;;18.42;11.70;;;;;;;10.77;72.31;100642.78;8478413;33;21238;-70
2020/12/20 13:29:49;;;;;;;19.73;11.20;;;;;;;10.57;73.45;100649.38;8479320;33;20436;-70
2020/12/20 13:34:52;;;;;;;21.65;11.38;;;;;;;10.62;73.28;100652.63;8479822;33;20149;-70
2020/12/20 13:39:55;;;;;;;20.00;10.85;;;;;;;10.54;73.56;100648.72;8478296;33;20546;-70
2020/12/20 13:45:06;;;;;;;18.38;10.27;;;;;;;10.49;73.38;100648.16;8481195;33;20448;-69
2020/12/20 13:50:09;;;;;;;21.02;12.18;;;;;;;10.45;73.61;100652.84;8479326;33;20145;-70
2020/12/20 13:55:12;;;;;;;17.33;10.70;;;;;;;10.43;74.02;100662.75;8477688;33;20192;-70
2020/12/20 14:00:14;;;;;;;24.60;13.98;;;;;;;10.38;74.04;100665.69;8477846;33;20195;-70
2020/12/20 14:05:18;;;;;;;22.17;12.90;;;;;;;10.36;74.14;100677.41;8482901;33;20149;-70
2020/12/20 14:10:21;;;;;;;19.77;11.35;;;;;;;10.29;74.30;100670.75;8483718;33;20211;-70
2020/12/20 14:15:23;;;;;;;20.48;11.57;;;;;;;10.31;74.38;100684.84;8484797;33;21016;-70
2020/12/20 14:20:26;;;;;;;21.27;11.82;;;;;;;10.30;74.32;100675.13;8479504;33;21582;-71
2020/12/20 14:25:29;;;;;;;20.67;11.50;;;;;;;10.30;74.73;100675.97;8477478;33;21831;-70
2020/12/20 14:30:31;;;;;;;19.30;11.65;;;;;;;10.27;74.44;100672.63;8476483;33;21191;-70
2020/12/20 14:35:34;;;;;;;22.45;11.80;;;;;;;10.21;75.02;100674.72;8475948;33;20149;-71
2020/12/20 14:40:36;;;;;;;18.95;11.88;;;;;;;10.17;74.87;100691.84;8480190;33;20196;-71
2020/12/20 14:45:39;;;;;;;17.80;11.57;;;;;;;10.10;75.32;100695.84;8481648;33;21005;-70
2020/12/20 14:50:42;;;;;;;18.63;11.32;;;;;;;10.05;75.24;100694.41;8477446;33;21883;-70
2020/12/20 14:55:46;;;;;;;21.25;11.60;;;;;;;10.00;75.42;100697.34;8476262;33;21110;-71
2020/12/20 15:00:49;;;;;;;22.15;12.55;;;;;;;9.98;75.37;100697.47;8477422;33;20188;-71
2020/12/20 15:05:52;;;;;;;22.67;12.13;;;;;;;9.95;75.98;100692.28;8482649;33;20990;-71
2020/12/20 15:10:54;;;;;;;21.35;11.48;;;;;;;9.92;75.42;100694.28;8462820;33;20428;-71
2020/12/20 15:15:56;;;;;;;23.83;12.15;;;;;;;9.89;76.05;100697.13;8480948;33;20133;-71
2020/12/20 15:20:59;;;;;;;20.60;12.07;;;;;;;9.83;76.11;100701.03;8480699;33;20180;-71
2020/12/20 15:26:02;;;;;;;19.88;12.00;;;;;;;9.80;76.33;100685.19;8479784;33;20583;-70
2020/12/20 15:31:05;;;;;;;22.92;11.75;;;;;;;9.77;76.19;100688.03;8480925;33;20144;-70
2020/12/20 15:36:09;;;;;;;23.88;13.27;;;;;;;9.69;76.51;100680.47;8480027;33;20527;-71
2020/12/20 15:41:13;;;;;;;20.40;11.93;;;;;;;9.64;76.54;100679.88;8475704;33;20251;-71
2020/12/20 15:46:16;;;;;;;22.23;12.73;;;;;;;9.66;76.59;100695.81;8446826;33;20486;-70
2020/12/20 15:51:21;;;;;;;22.50;12.03;;;;;;;9.68;76.69;100707.25;8469462;33;21016;-71
2020/12/20 15:56:43;;;;;;;22.05;12.55;;;;;;;9.68;76.33;100700.13;8470628;33;20186;-69
2020/12/20 16:01:46;;;;;;;20.60;11.70;;;;;;;9.67;76.55;100714.38;8470885;33;21890;-70
2020/12/20 16:06:49;;;;;;;20.15;11.55;;;;;;;9.61;76.52;100712.09;8473203;33;20444;-70
2020/12/20 16:11:51;;;;;;;25.83;12.73;;;;;;;9.61;76.09;100713.91;8472948;33;20424;-71
2020/12/20 16:16:54;;;;;;;26.40;13.00;;;;;;;9.61;76.34;100724.56;8474152;33;20181;-71
2020/12/20 16:22:17;;;;;;;21.73;11.75;;;;;;;9.61;76.59;100711.22;8474205;33;20203;-70
2020/12/20 16:27:19;;;;;;;22.35;11.75;;;;;;;9.64;76.69;100713.72;8473670;33;20172;-70
2020/12/20 16:32:22;;;;;;;23.38;12.07;;;;;;;9.62;76.83;100728.94;8472232;33;20604;-69
2020/12/20 16:37:25;;;;;;;18.67;11.50;;;;;;;9.59;77.08;100727.31;8476752;33;20151;-70
2020/12/20 16:42:28;;;;;;;15.75;9.70;;;;;;;9.60;77.06;100723.72;8487111;33;20569;-70
2020/12/20 16:47:30;;;;;;;16.60;9.60;;;;;;;9.62;77.10;100712.94;8488232;33;20457;-69
2020/12/20 16:52:33;;;;;;;19.58;9.88;;;;;;;9.63;77.03;100718.19;8499179;33;20240;-70
2020/12/20 16:57:36;;;;;;;13.90;7.97;;;;;;;9.73;77.24;100735.38;8503933;33;20196;-70
2020/12/20 17:02:39;;;;;;;10.85;7.25;;;;;;;9.95;76.29;100724.31;8503654;33;20797;-69
2020/12/20 17:08:02;;;;;;;15.23;7.05;;;;;;;9.99;76.21;100723.19;8464261;33;20469;-70
2020/12/20 17:13:09;;;;;;;14.75;7.18;;;;;;;10.00;75.57;100719.56;8432670;34;20445;-70
2020/12/20 17:18:17;;;;;;;9.98;6.57;;;;;;;10.03;75.42;100734.53;8434474;33;20208;-70
2020/12/20 17:23:25;;;;;;;11.43;6.10;;;;;;;10.05;75.00;100729.13;8430335;34;20510;-69
2020/12/20 17:28:33;;;;;;;10.00;5.70;;;;;;;10.12;75.02;100734.00;8435449;33;20428;-69
2020/12/20 17:33:40;;;;;;;12.77;6.05;;;;;;;10.13;75.08;100741.06;8435814;34;20466;-71
2020/12/20 17:38:50;;;;;;;11.45;6.28;;;;;;;10.10;75.06;100751.94;8427104;33;20642;-70
2020/12/20 17:43:58;;;;;;;13.45;6.85;;;;;;;10.08;75.19;100771.66;8421195;33;20457;-71
2020/12/20 17:49:05;;;;;;;13.65;6.72;;;;;;;10.05;74.76;100771.84;8424273;33;20438;-71
2020/12/20 17:54:13;;;;;;;9.88;6.25;;;;;;;9.99;75.28;100771.25;8424067;34;21092;-70
2020/12/20 17:59:15;;;;;;;10.75;6.28;;;;;;;9.96;75.28;100775.91;8424183;33;20870;-71
2020/12/20 18:04:18;;;;;;;15.02;6.72;;;;;;;10.04;74.81;100792.34;8424444;34;20447;-71
2020/12/20 18:09:21;;;;;;;14.27;7.40;;;;;;;9.95;76.72;100790.19;8426036;33;20425;-71
2020/12/20 18:14:24;;;;;;;12.70;6.25;;;;;;;9.63;79.05;100795.56;8428069;34;20500;-70
2020/12/20 18:19:27;;;;;;;12.07;7.45;;;;;;;9.50;79.93;100783.84;8426965;33;20158;-70
2020/12/20 18:24:30;;;;;;;14.88;7.05;;;;;;;9.47;80.73;100778.69;8429471;34;20188;-71
2020/12/20 18:29:33;;;;;;;13.73;7.43;;;;;;;9.32;81.39;100783.94;8430945;33;20486;-70
2020/12/20 18:34:35;;;;;;;16.48;7.68;;;;;;;9.24;81.88;100790.63;8435930;34;20208;-70
2020/12/20 18:39:39;;;;;;;15.45;7.25;;;;;;;9.15;82.10;100797.31;8472598;33;20242;-70
2020/12/20 18:44:42;;;;;;;14.07;8.23;;;;;;;9.07;82.31;100804.88;8490577;33;20495;-71
2020/12/20 18:49:44;;;;;;;15.20;8.05;;;;;;;9.07;82.22;100803.06;8492064;33;20144;-70
2020/12/20 18:54:48;;;;;;;18.20;7.80;;;;;;;9.09;82.02;100803.00;8504957;33;20540;-71
2020/12/20 18:59:50;;;;;;;12.50;7.68;;;;;;;9.12;81.31;100801.00;8503361;33;20137;-71
2020/12/20 19:04:52;;;;;;;14.93;7.90;;;;;;;9.22;81.23;100801.38;8503749;33;20198;-70
2020/12/20 19:09:56;;;;;;;14.68;8.68;;;;;;;9.17;80.81;100798.09;8498011;33;21087;-71
2020/12/20 19:14:58;;;;;;;10.95;7.53;;;;;;;9.16;80.90;100801.72;8497389;33;21572;-71
2020/12/20 19:20:01;;;;;;;13.45;7.13;;;;;;;9.09;80.58;100813.66;8470036;33;20272;-70
2020/12/20 19:25:05;;;;;;;16.65;7.75;;;;;;;9.08;80.64;100814.59;8447150;33;21779;-70
2020/12/20 19:30:08;;;;;;;13.38;7.30;;;;;;;9.06;80.54;100819.16;8447213;34;20437;-70
2020/12/20 19:35:11;;;;;;;16.05;7.10;;;;;;;9.01;80.66;100818.53;8447724;33;20180;-70
2020/12/20 19:40:14;;;;;;;12.07;6.75;;;;;;;9.02;81.12;100820.25;8445658;34;20833;-70
2020/12/20 19:45:16;;;;;;;12.30;7.38;;;;;;;9.03;80.80;100816.66;8433671;33;20177;-70
2020/12/20 19:50:19;;;;;;;13.77;6.70;;;;;;;9.09;80.85;100817.19;8434002;34;20485;-71
2020/12/20 19:55:22;;;;;;;13.30;6.70;;;;;;;9.20;80.54;100811.25;8429381;33;20144;-71
2020/12/20 20:00:25;;;;;;;11.15;6.30;;;;;;;9.23;80.48;100813.75;8427352;34;20429;-71
2020/12/20 20:05:27;;;;;;;9.43;5.95;;;;;;;9.29;80.34;100816.09;8428895;33;20187;-70
2020/12/20 20:10:31;;;;;;;11.98;6.07;;;;;;;9.37;80.26;100815.66;8432686;34;21052;-70
2020/12/20 20:15:33;;;;;;;12.98;7.15;;;;;;;9.44;80.49;100817.06;8434039;33;20960;-71
2020/12/20 20:20:36;;;;;;;13.63;6.65;;;;;;;9.52;80.27;100827.31;8433466;34;20181;-70
2020/12/20 20:25:40;;;;;;;18.55;7.53;;;;;;;9.00;82.70;100844.31;8435631;33;20408;-71
2020/12/20 20:30:42;;;;;;;10.18;5.68;;;;;;;8.65;84.60;100844.34;8435755;33;20197;-70
2020/12/20 20:35:45;;;;;;;12.52;5.05;;;;;;;8.55;85.25;100860.88;8432968;33;20479;-70
2020/12/20 20:40:48;;;;;;;10.57;5.20;;;;;;;8.59;85.43;100875.78;8431986;34;20846;-71
2020/12/20 20:45:51;;;;;;;6.30;4.43;;;;;;;8.82;85.36;100891.44;8430309;33;20417;-72
2020/12/20 20:50:53;;;;;;;8.95;3.90;;;;;;;8.38;86.82;100893.66;8424438;34;20474;-73
2020/12/20 20:55:56;;;;;;;5.97;3.60;;;;;;;8.27;86.81;100909.31;8429518;33;20429;-74
2020/12/20 21:00:58;;;;;;;10.32;4.47;;;;;;;8.27;87.40;100888.00;8427804;34;20362;-74
2020/12/20 21:06:01;;;;;;;5.72;3.70;;;;;;;8.29;86.53;100873.69;8430113;33;21051;-74
2020/12/20 21:11:05;;;;;;;6.63;3.95;;;;;;;8.30;86.24;100863.91;8430826;34;20580;-74
2020/12/20 21:16:07;;;;;;;6.70;3.17;;;;;;;8.30;86.38;100871.88;8435699;33;20154;-73
2020/12/20 21:21:10;;;;;;;7.15;3.47;;;;;;;8.41;86.27;100853.59;8435137;34;20145;-73
2020/12/20 21:26:13;;;;;;;6.05;4.32;;;;;;;8.48;86.47;100846.19;8453663;33;20205;-73
2020/12/20 21:31:16;;;;;;;6.93;4.30;;;;;;;8.43;86.49;100854.38;8479610;33;20196;-73
2020/12/20 21:36:19;;;;;;;8.07;4.97;;;;;;;8.38;86.50;100851.06;8501044;33;20438;-72
2020/12/20 21:41:22;;;;;;;13.77;5.53;;;;;;;8.42;86.66;100853.53;8504868;33;21641;-73
2020/12/20 21:46:24;;;;;;;15.15;5.93;;;;;;;8.40;86.40;100860.72;8504212;33;20145;-73
2020/12/20 21:51:29;;;;;;;11.25;6.55;;;;;;;8.36;86.69;100884.88;8494373;33;20195;-72
2020/12/20 21:56:33;;;;;;;8.35;5.75;;;;;;;8.28;86.87;100876.41;8491313;33;20442;-72
2020/12/20 22:01:35;;;;;;;9.82;6.32;;;;;;;8.32;86.67;100894.81;8490682;33;20491;-72
2020/12/20 22:06:37;;;;;;;15.43;5.68;;;;;;;8.24;86.91;100889.88;8490209;33;20238;-72
2020/12/20 22:11:40;;;;;;;13.55;6.35;;;;;;;8.33;86.76;100885.03;8490824;33;20257;-72
2020/12/20 22:16:43;;;;;;;9.65;5.55;;;;;;;8.37;86.69;100897.28;8492085;33;20405;-72
2020/12/20 22:21:45;;;;;;;7.72;5.07;;;;;;;8.38;86.67;100888.34;8503255;33;20422;-72
2020/12/20 22:26:48;;;;;;;8.30;4.97;;;;;;;8.43;86.42;100905.84;8502525;33;20475;-72
2020/12/20 22:31:51;;;;;;;8.98;5.28;;;;;;;8.40;86.42;100899.81;8502406;33;20338;-71
2020/12/20 22:36:55;;;;;;;9.32;5.22;;;;;;;8.37;86.36;100905.25;8503633;33;20242;-71
2020/12/20 22:42:00;;;;;;;10.60;5.35;;;;;;;8.31;86.15;100898.44;8503827;33;20418;-71
2020/12/20 22:47:02;;;;;;;8.38;4.07;;;;;;;8.12;86.47;100914.44;8505775;33;20525;-71
2020/12/20 22:52:05;;;;;;;7.15;3.95;;;;;;;8.18;86.32;100916.81;8502939;33;20428;-71
2020/12/20 22:57:08;;;;;;;8.88;4.47;;;;;;;8.20;86.28;100919.38;8502074;33;20496;-71
2020/12/20 23:02:10;;;;;;;7.93;4.50;;;;;;;8.22;86.20;100921.03;8502201;33;20866;-71
2020/12/20 23:07:14;;;;;;;5.00;3.63;;;;;;;8.45;85.85;100927.09;8490872;33;20505;-71
2020/12/20 23:12:18;;;;;;;7.13;4.07;;;;;;;8.37;85.65;100922.09;8491423;33;20516;-71
2020/12/20 23:17:20;;;;;;;10.40;4.40;;;;;;;8.36;85.46;100930.13;8487499;33;20995;-71
2020/12/20 23:22:22;;;;;;;9.30;4.00;;;;;;;8.41;85.56;100928.16;8487774;33;20376;-71
2020/12/20 23:27:25;;;;;;;6.35;4.03;;;;;;;8.43;85.35;100916.50;8486746;33;20173;-71